Main page
METAR-TAF:

Airports :

London-Southend, England

London Southend Airport

latitude: 51-34N, longitude: 000-42E, elevation: 15 m

Current weather observation

The report was made 27 minutes ago, at 12:50 UTC
Wind 11 kt from the North, varying between North/Northwest and North/Northeast
Temperature 19°C
Humidity 68%
Pressure 1011 hPa
Visibility 10 km or more
no clouds below 1500 m and no cumulonimbus

METAR: EGMC 291250Z 36011KT 330V030 CAVOK 19/13 Q1011

Time: 14:17 (13:17 UTC)

Forecast

The report was made 2 hours and 9 minutes ago, at 11:08 UTC
Forecast valid from 29 at 12 UTC to 29 at 21 UTC
Wind 10 kt from the North
Visibility 10 km or more
Few clouds at a height of 3000 ft
Probability 30% :
Temporary
from 29 at 19 UTC to 29 at 21 UTC
Broken clouds at a height of 1400 ft

TAF: EGMC 291108Z 2912/2921 01010KT 9999 FEW030 PROB30 TEMPO 2919/2921 BKN014

METAR-TAF

Weather observations and forecasts of more than 4000 airports (METAR and TAF reports).

The available stations are represented by yellow and red dots on the map.

Hover mouse over dot to see the name of the station.

Then click to see weather observations and forecasts.

To change the map : click on the green buttons with a black cross to zoom in, on the green button with a dash to zoom out, or on the green arrows for adjacent maps.


METAR-TAF: